Time;durP1;ratioP1;P1;durP2;ratioP2;P2;SDS_P1;SDS_P2;PMS_P1;PMS_P2;Temp;Humidity;BMP_temperature;BMP_pressure;BME280_temperature;BME280_humidity;BME280_pressure;Samples;Min_cycle;Max_cycle;Signal;HPM_P1;HPM_P2
2022/12/02 00:02:42;;;;;;;25.80;14.40;;;;;;;0.95;72.51;101381.35;126588;1281;98931;-76
2022/12/02 00:05:48;;;;;;;32.70;18.30;;;;;;;0.94;72.53;101379.64;126626;1277;98438;-76
2022/12/02 00:08:52;;;;;;;27.20;16.10;;;;;;;0.94;72.63;101377.69;126703;1277;98736;-77
2022/12/02 00:11:55;;;;;;;25.80;13.40;;;;;;;0.95;72.74;101374.36;126638;1288;98770;-76
2022/12/02 00:15:02;;;;;;;22.60;13.90;;;;;;;0.94;72.69;101378.23;126586;1287;98081;-78
2022/12/02 00:18:05;;;;;;;22.50;12.80;;;;;;;0.91;72.59;101376.06;126896;1285;98768;-77
2022/12/02 00:21:08;;;;;;;22.90;12.60;;;;;;;0.88;72.66;101378.64;126965;1282;98766;-77
2022/12/02 00:24:10;;;;;;;19.40;12.10;;;;;;;0.86;72.46;101381.38;126731;1293;98440;-76
2022/12/02 00:27:13;;;;;;;24.10;13.50;;;;;;;0.82;72.42;101382.42;126679;1284;98989;-77
2022/12/02 00:30:16;;;;;;;22.40;12.70;;;;;;;0.80;72.52;101381.98;126583;1283;98751;-77
2022/12/02 00:33:19;;;;;;;26.10;13.60;;;;;;;0.74;72.45;101383.92;126710;1296;98025;-76
2022/12/02 00:36:21;;;;;;;24.20;14.40;;;;;;;0.68;72.49;101384.02;126704;1281;99027;-77
2022/12/02 00:39:24;;;;;;;26.80;14.90;;;;;;;0.61;72.46;101379.94;126615;1294;98728;-79
2022/12/02 00:42:27;;;;;;;26.20;15.00;;;;;;;0.54;72.65;101382.30;126517;1281;98067;-77
2022/12/02 00:48:50;;;;;;;29.40;15.90;;;;;;;0.41;72.73;101386.15;126785;1286;111256;-78
2022/12/02 00:51:53;;;;;;;30.60;18.40;;;;;;;0.38;72.88;101384.13;126733;1288;98498;-78
2022/12/02 00:54:56;;;;;;;26.30;15.20;;;;;;;0.38;72.90;101382.76;126602;1287;98049;-76
2022/12/02 00:57:59;;;;;;;28.30;16.60;;;;;;;0.37;72.90;101380.34;126718;1288;98005;-78
2022/12/02 01:01:01;;;;;;;29.30;15.40;;;;;;;0.37;72.94;101383.30;126486;1286;99176;-76
2022/12/02 01:04:05;;;;;;;26.80;14.40;;;;;;;0.38;73.12;101383.79;126773;1279;98444;-76
2022/12/02 01:07:08;;;;;;;23.60;12.40;;;;;;;0.36;73.04;101381.75;126964;1277;98773;-78
2022/12/02 01:10:11;;;;;;;24.60;14.10;;;;;;;0.39;73.16;101379.04;126876;1277;99140;-78
2022/12/02 01:13:14;;;;;;;24.50;13.50;;;;;;;0.44;73.06;101375.38;126764;1288;98010;-77
2022/12/02 01:16:18;;;;;;;27.80;16.20;;;;;;;0.44;73.00;101375.18;126629;1284;111202;-77
2022/12/02 01:19:21;;;;;;;27.50;15.20;;;;;;;0.44;73.23;101377.61;126715;1293;99172;-77
2022/12/02 01:22:23;;;;;;;28.40;17.00;;;;;;;0.45;73.19;101375.30;126535;1287;98399;-78
2022/12/02 01:25:26;;;;;;;25.10;13.60;;;;;;;0.46;73.29;101376.64;126591;1285;219177;-78
2022/12/02 01:28:29;;;;;;;24.40;13.90;;;;;;;0.44;73.21;101373.61;126746;1289;98847;-78
2022/12/02 01:31:32;;;;;;;21.80;12.70;;;;;;;0.42;73.25;101374.93;126694;1282;98406;-78
2022/12/02 01:34:36;;;;;;;22.50;13.10;;;;;;;0.40;73.20;101372.18;126621;1296;111337;-78
2022/12/02 01:37:38;;;;;;;23.70;13.00;;;;;;;0.35;73.32;101367.44;126635;1286;98058;-77
2022/12/02 01:40:43;;;;;;;21.00;12.80;;;;;;;0.33;73.42;101360.73;126618;1293;111205;-76
2022/12/02 01:43:46;;;;;;;22.70;13.00;;;;;;;0.32;73.44;101362.15;126509;1277;98010;-76
2022/12/02 01:46:49;;;;;;;24.10;12.70;;;;;;;0.30;73.37;101363.99;126575;1278;98755;-77
2022/12/02 01:49:52;;;;;;;21.40;12.70;;;;;;;0.28;73.52;101364.05;126619;1285;98101;-76
2022/12/02 01:52:55;;;;;;;25.10;13.50;;;;;;;0.28;73.54;101368.44;126658;1294;99141;-78
2022/12/02 01:55:57;;;;;;;21.10;11.90;;;;;;;0.28;73.55;101361.60;126926;1276;99118;-75
2022/12/02 01:59:01;;;;;;;19.50;11.50;;;;;;;0.29;73.37;101350.72;126788;1285;98468;-78
2022/12/02 02:02:18;;;;;;;20.60;12.00;;;;;;;0.26;73.27;101345.41;126797;1288;99150;-78
2022/12/02 02:05:23;;;;;;;20.10;12.20;;;;;;;0.23;73.36;101346.58;126744;1287;111180;-76
2022/12/02 02:08:26;;;;;;;20.40;11.30;;;;;;;0.19;73.38;101346.73;126766;1290;109181;-76
2022/12/02 02:11:29;;;;;;;19.10;10.60;;;;;;;0.18;73.31;101346.96;126563;1294;98994;-75
2022/12/02 02:14:34;;;;;;;17.10;9.50;;;;;;;0.19;73.14;101348.32;126746;1294;111115;-75
2022/12/02 02:17:38;;;;;;;18.90;10.30;;;;;;;0.17;73.13;101353.30;126760;1278;98076;-76
2022/12/02 02:20:41;;;;;;;19.80;10.80;;;;;;;0.22;73.12;101346.10;126770;1285;111641;-76
2022/12/02 02:23:45;;;;;;;18.40;11.40;;;;;;;0.25;73.13;101343.52;126883;1286;111878;-78
2022/12/02 02:26:48;;;;;;;17.30;10.30;;;;;;;0.30;73.19;101341.77;126946;1273;111138;-76
2022/12/02 02:29:51;;;;;;;17.40;10.40;;;;;;;0.31;72.94;101344.34;126805;1283;98024;-78
2022/12/02 02:32:55;;;;;;;18.30;10.20;;;;;;;0.30;72.86;101341.73;126916;1293;99188;-76
2022/12/02 02:35:58;;;;;;;17.40;10.30;;;;;;;0.28;72.71;101343.27;126573;1294;109954;-76
2022/12/02 02:39:01;;;;;;;17.90;10.00;;;;;;;0.24;72.77;101342.16;126664;1290;110278;-76
2022/12/02 02:42:04;;;;;;;19.10;11.10;;;;;;;0.18;72.62;101345.55;126547;1294;110865;-76
2022/12/02 02:45:09;;;;;;;19.10;11.40;;;;;;;0.11;72.86;101347.09;126887;1285;111226;-78
2022/12/02 02:48:14;;;;;;;19.20;11.10;;;;;;;0.10;72.87;101351.31;126675;1287;111201;-76
2022/12/02 02:51:18;;;;;;;21.10;12.00;;;;;;;0.07;72.82;101346.52;126702;1286;111291;-78
2022/12/02 02:54:21;;;;;;;19.80;11.20;;;;;;;0.06;72.70;101346.89;126789;1280;111185;-75
2022/12/02 02:57:23;;;;;;;16.50;10.00;;;;;;;0.01;72.81;101343.06;126610;1282;98075;-77
2022/12/02 03:00:28;;;;;;;15.60;9.90;;;;;;;0.01;72.73;101341.85;126770;1287;111247;-77
2022/12/02 03:03:36;;;;;;;16.70;9.90;;;;;;;-0.05;72.59;101347.83;126954;1278;97985;-76
2022/12/02 03:06:41;;;;;;;19.80;10.80;;;;;;;-0.09;72.75;101344.13;126809;1282;111205;-73
2022/12/02 03:09:44;;;;;;;17.30;10.30;;;;;;;-0.09;72.77;101340.80;126630;1277;111296;-73
2022/12/02 03:12:52;;;;;;;19.30;10.90;;;;;;;-0.09;72.77;101341.86;126737;1278;111178;-74
2022/12/02 03:15:55;;;;;;;21.20;12.20;;;;;;;-0.08;72.76;101342.89;126705;1281;111104;-74
2022/12/02 03:18:58;;;;;;;23.40;13.40;;;;;;;-0.06;72.87;101337.20;126787;1282;111142;-73
2022/12/02 03:22:02;;;;;;;23.80;15.00;;;;;;;-0.05;72.88;101335.74;126670;1295;111290;-75
2022/12/02 03:25:07;;;;;;;23.10;13.10;;;;;;;-0.03;72.69;101341.80;127337;1274;111135;-74
2022/12/02 03:28:11;;;;;;;22.90;13.10;;;;;;;-0.05;72.49;101339.95;126947;1277;110378;-74
2022/12/02 03:31:14;;;;;;;22.00;12.00;;;;;;;-0.04;72.55;101335.55;126600;1298;111119;-70
2022/12/02 03:34:17;;;;;;;22.50;12.50;;;;;;;-0.00;72.53;101338.02;126601;1303;111210;-74
2022/12/02 03:37:21;;;;;;;21.30;11.80;;;;;;;0.08;72.52;101335.80;126888;1285;111171;-74
2022/12/02 03:40:24;;;;;;;18.10;11.40;;;;;;;0.17;72.56;101332.64;126862;1281;111244;-73
2022/12/02 03:43:26;;;;;;;33.20;16.90;;;;;;;0.22;72.36;101325.98;126960;1280;111219;-73
2022/12/02 03:46:30;;;;;;;27.10;16.00;;;;;;;0.23;72.43;101331.02;126813;1281;99132;-77
2022/12/02 03:49:34;;;;;;;27.40;14.90;;;;;;;0.24;72.32;101333.06;126817;1282;112413;-74
2022/12/02 03:52:36;;;;;;;19.90;12.10;;;;;;;0.23;72.14;101328.20;126742;1296;111493;-77
2022/12/02 03:55:39;;;;;;;23.20;13.20;;;;;;;0.18;72.11;101324.55;126635;1282;98868;-76
2022/12/02 03:58:46;;;;;;;23.60;12.90;;;;;;;0.16;72.29;101322.01;126639;1286;98072;-79
2022/12/02 04:01:49;;;;;;;23.60;12.90;;;;;;;0.15;72.21;101323.95;126667;1285;109560;-77
2022/12/02 04:04:52;;;;;;;22.70;13.00;;;;;;;0.14;72.08;101324.73;126722;1280;99754;-76
2022/12/02 04:07:55;;;;;;;22.20;12.30;;;;;;;0.08;72.15;101323.02;126718;1274;98498;-77
2022/12/02 04:10:58;;;;;;;21.40;12.80;;;;;;;0.03;72.09;101319.91;126792;1281;98663;-76
2022/12/02 04:14:00;;;;;;;25.70;12.80;;;;;;;-0.02;72.22;101319.02;126759;1288;98339;-78
2022/12/02 04:17:03;;;;;;;21.90;12.40;;;;;;;-0.07;72.40;101316.25;126968;1286;98592;-77
2022/12/02 04:20:09;;;;;;;25.00;14.10;;;;;;;-0.06;72.34;101317.97;126912;1285;99165;-76
2022/12/02 04:23:12;;;;;;;23.40;13.00;;;;;;;-0.13;72.24;101319.45;126815;1287;109992;-77
2022/12/02 04:26:15;;;;;;;24.80;13.80;;;;;;;-0.16;72.48;101316.42;126813;1277;98002;-76
2022/12/02 04:29:18;;;;;;;23.50;13.40;;;;;;;-0.16;72.48;101315.70;126885;1280;97976;-77
2022/12/02 04:32:20;;;;;;;34.90;19.00;;;;;;;-0.15;72.33;101313.41;126741;1275;99191;-77
2022/12/02 04:35:23;;;;;;;35.80;18.90;;;;;;;-0.14;72.45;101312.48;126775;1277;99161;-77
2022/12/02 04:38:25;;;;;;;35.10;20.10;;;;;;;-0.11;72.30;101315.90;126819;1270;98075;-77
2022/12/02 04:41:28;;;;;;;33.60;19.20;;;;;;;-0.13;72.36;101318.58;126946;1278;99220;-79
2022/12/02 04:44:31;;;;;;;30.90;16.40;;;;;;;-0.16;72.53;101319.40;127015;1286;98064;-78
2022/12/02 04:47:34;;;;;;;26.00;14.90;;;;;;;-0.16;72.47;101323.61;127049;1281;107501;-75
2022/12/02 04:50:37;;;;;;;31.00;16.00;;;;;;;-0.19;72.39;101323.88;126813;1284;98389;-75
2022/12/02 04:53:40;;;;;;;29.30;15.50;;;;;;;-0.22;72.41;101324.15;126637;1278;98354;-79
2022/12/02 04:56:42;;;;;;;28.20;13.40;;;;;;;-0.19;72.41;101322.83;126730;1280;99240;-78
2022/12/02 04:59:45;;;;;;;22.80;11.90;;;;;;;-0.15;72.42;101323.73;126723;1280;98074;-77
2022/12/02 05:02:48;;;;;;;24.90;13.30;;;;;;;-0.08;72.32;101326.10;126704;1286;99141;-79
2022/12/02 05:05:50;;;;;;;28.30;13.90;;;;;;;-0.08;72.02;101327.11;126641;1280;98007;-78
2022/12/02 05:08:53;;;;;;;24.10;12.60;;;;;;;-0.10;71.98;101325.64;126591;1290;99140;-77
2022/12/02 05:11:56;;;;;;;21.70;11.70;;;;;;;-0.09;71.72;101329.62;126716;1287;97982;-77
2022/12/02 05:14:59;;;;;;;19.20;11.60;;;;;;;-0.14;71.66;101329.61;126670;1280;98778;-77
2022/12/02 05:18:01;;;;;;;22.50;12.50;;;;;;;-0.20;71.68;101334.74;126746;1271;98424;-77
2022/12/02 05:21:05;;;;;;;21.90;13.00;;;;;;;-0.20;71.69;101336.30;126634;1277;99296;-77
2022/12/02 05:24:08;;;;;;;22.00;12.70;;;;;;;-0.22;71.57;101339.02;126568;1280;99141;-77
2022/12/02 05:27:11;;;;;;;24.50;14.20;;;;;;;-0.28;71.84;101336.64;126604;1280;98042;-75
2022/12/02 05:30:14;;;;;;;36.00;21.80;;;;;;;-0.29;71.70;101337.88;126546;1294;98011;-76
2022/12/02 05:33:17;;;;;;;37.60;23.50;;;;;;;-0.30;71.82;101337.42;126598;1281;99150;-77
2022/12/02 05:36:20;;;;;;;29.60;16.00;;;;;;;-0.33;71.77;101337.17;126704;1286;98424;-78
2022/12/02 05:39:22;;;;;;;29.30;16.00;;;;;;;-0.35;71.67;101337.78;126816;1282;99105;-79
2022/12/02 05:42:25;;;;;;;29.40;16.00;;;;;;;-0.37;71.66;101337.69;126607;1272;97984;-78
2022/12/02 05:45:28;;;;;;;25.30;13.90;;;;;;;-0.40;71.61;101337.92;126602;1280;101520;-77
2022/12/02 05:48:34;;;;;;;25.80;15.20;;;;;;;-0.42;71.74;101337.31;126696;1288;98512;-78
2022/12/02 05:51:36;;;;;;;27.50;14.30;;;;;;;-0.43;71.69;101337.67;126613;1287;97984;-78
2022/12/02 05:54:39;;;;;;;22.40;13.30;;;;;;;-0.45;71.62;101348.25;126662;1294;99012;-77
2022/12/02 05:57:42;;;;;;;24.40;14.70;;;;;;;-0.48;71.66;101350.13;126635;1279;99164;-79
2022/12/02 06:00:46;;;;;;;25.70;14.00;;;;;;;-0.52;71.67;101357.77;126690;1288;98575;-78
2022/12/02 06:03:50;;;;;;;26.10;14.20;;;;;;;-0.56;71.69;101360.02;126569;1281;98079;-78
2022/12/02 06:06:54;;;;;;;26.20;14.20;;;;;;;-0.57;71.67;101360.40;126599;1282;99199;-78
2022/12/02 06:09:57;;;;;;;33.90;19.40;;;;;;;-0.59;71.78;101360.29;126775;1281;99144;-78
2022/12/02 06:13:06;;;;;;;29.20;18.10;;;;;;;-0.61;71.49;101360.70;126696;1278;97978;-77
2022/12/02 06:16:21;;;;;;;24.20;14.80;;;;;;;-0.62;71.76;101366.53;126760;1281;98084;-79
2022/12/02 06:19:26;;;;;;;23.70;14.30;;;;;;;-0.65;71.54;101364.71;126584;1277;98074;-79
2022/12/02 06:22:31;;;;;;;24.00;14.10;;;;;;;-0.67;71.51;101364.09;126620;1281;99509;-80
2022/12/02 06:25:35;;;;;;;26.20;14.10;;;;;;;-0.73;71.65;101362.54;126793;1287;97959;-78
2022/12/02 06:28:39;;;;;;;26.20;13.30;;;;;;;-0.73;71.56;101363.94;126804;1282;98773;-77
2022/12/02 06:31:42;;;;;;;23.00;13.90;;;;;;;-0.70;71.45;101364.70;126896;1286;98755;-78
2022/12/02 06:34:47;;;;;;;41.40;22.90;;;;;;;-0.68;71.43;101365.36;126795;1281;98002;-79
2022/12/02 06:37:53;;;;;;;45.30;26.20;;;;;;;-0.68;71.56;101373.20;126638;1287;98008;-79
2022/12/02 06:40:58;;;;;;;60.90;27.60;;;;;;;-0.70;71.49;101373.80;126797;1277;98289;-78
2022/12/02 06:47:59;;;;;;;33.10;17.30;;;;;;;-0.69;71.53;101378.82;126665;1293;98019;-77
2022/12/02 06:51:15;;;;;;;120.70;34.20;;;;;;;-0.67;71.38;101378.40;126754;1287;98752;-79
2022/12/02 06:54:22;;;;;;;63.90;23.00;;;;;;;-0.66;71.52;101380.64;126696;1281;97977;-74
2022/12/02 06:57:24;;;;;;;32.80;17.40;;;;;;;-0.66;71.24;101381.34;126882;1288;99036;-77
2022/12/02 07:00:27;;;;;;;32.30;16.00;;;;;;;-0.66;71.22;101382.58;126992;1287;98570;-76
2022/12/02 07:03:33;;;;;;;32.60;17.00;;;;;;;-0.68;71.08;101381.26;126828;1286;98776;-74
2022/12/02 07:06:38;;;;;;;29.10;16.60;;;;;;;-0.71;71.48;101379.60;127012;1280;98064;-76
2022/12/02 07:09:44;;;;;;;26.60;15.50;;;;;;;-0.72;71.36;101380.16;127110;1274;98015;-76
2022/12/02 07:12:47;;;;;;;27.30;16.20;;;;;;;-0.71;71.52;101379.41;126848;1282;98020;-76
2022/12/02 07:15:51;;;;;;;27.70;15.30;;;;;;;-0.73;71.24;101383.52;126862;1288;99121;-76
2022/12/02 07:18:54;;;;;;;27.10;14.70;;;;;;;-0.74;71.23;101383.73;126853;1281;98028;-75
2022/12/02 07:21:58;;;;;;;27.00;13.80;;;;;;;-0.70;71.31;101383.59;126940;1280;99141;-75
2022/12/02 07:25:23;;;;;;;24.60;12.30;;;;;;;-0.63;71.14;101384.02;126967;1277;98003;-75
2022/12/02 07:28:30;;;;;;;23.10;12.50;;;;;;;-0.56;71.08;101387.80;126827;1287;98623;-75
2022/12/02 07:31:33;;;;;;;24.20;14.00;;;;;;;-0.55;70.77;101391.95;126916;1280;99138;-77
2022/12/02 07:34:35;;;;;;;23.50;14.10;;;;;;;-0.53;70.89;101391.02;126786;1280;98441;-75
2022/12/02 07:37:38;;;;;;;25.00;14.30;;;;;;;-0.49;70.79;101388.09;126638;1281;99036;-76
2022/12/02 07:40:41;;;;;;;24.60;13.50;;;;;;;-0.47;70.78;101389.92;126569;1280;98952;-77
2022/12/02 07:43:44;;;;;;;24.60;14.40;;;;;;;-0.45;70.77;101392.49;126756;1274;98084;-77
2022/12/02 07:46:47;;;;;;;25.80;14.80;;;;;;;-0.47;70.64;101391.14;126557;1274;99262;-74
2022/12/02 07:49:50;;;;;;;28.90;16.10;;;;;;;-0.45;70.81;101390.23;126709;1288;99154;-75
2022/12/02 07:52:52;;;;;;;25.60;14.60;;;;;;;-0.45;70.77;101392.66;126647;1280;98002;-74
2022/12/02 07:55:57;;;;;;;25.50;14.90;;;;;;;-0.46;70.71;101396.37;126601;1281;99161;-74
2022/12/02 07:59:08;;;;;;;26.60;14.40;;;;;;;-0.49;70.64;101393.31;126724;1286;98142;-76
2022/12/02 08:02:11;;;;;;;27.00;15.20;;;;;;;-0.52;70.56;101392.05;126684;1288;98018;-75
2022/12/02 08:05:14;;;;;;;26.40;15.40;;;;;;;-0.56;70.56;101390.24;126656;1274;99136;-75
2022/12/02 08:08:17;;;;;;;29.00;16.10;;;;;;;-0.54;70.85;101388.11;126669;1282;99589;-76
2022/12/02 08:11:20;;;;;;;38.90;19.60;;;;;;;-0.51;70.83;101389.39;126889;1296;98427;-78
2022/12/02 08:14:22;;;;;;;29.80;16.90;;;;;;;-0.49;70.76;101385.83;126992;1281;98379;-75
2022/12/02 08:17:25;;;;;;;24.80;15.00;;;;;;;-0.48;70.57;101378.77;126924;1280;97982;-75
2022/12/02 08:20:29;;;;;;;24.40;14.80;;;;;;;-0.50;70.48;101375.91;126745;1287;99147;-75
2022/12/02 08:23:32;;;;;;;25.20;15.70;;;;;;;-0.54;70.54;101374.27;126737;1280;98479;-76
2022/12/02 08:26:34;;;;;;;22.00;13.50;;;;;;;-0.56;70.55;101370.34;126737;1288;98081;-77
2022/12/02 08:29:37;;;;;;;29.00;14.80;;;;;;;-0.60;70.56;101365.59;126855;1273;98049;-77
2022/12/02 08:32:40;;;;;;;37.40;19.50;;;;;;;-0.60;70.60;101369.25;126950;1288;99768;-75
2022/12/02 08:35:42;;;;;;;29.00;16.10;;;;;;;-0.58;70.66;101370.42;126888;1280;98387;-75
2022/12/02 08:38:45;;;;;;;26.00;15.40;;;;;;;-0.58;70.61;101366.55;126902;1281;99147;-75
2022/12/02 08:41:48;;;;;;;25.10;15.70;;;;;;;-0.56;70.56;101367.35;126657;1277;98003;-74
2022/12/02 08:45:09;;;;;;;28.20;14.90;;;;;;;-0.54;70.58;101368.70;126574;1287;99618;-76
2022/12/02 08:48:15;;;;;;;39.20;19.90;;;;;;;-0.53;70.49;101367.26;126711;1288;98019;-75
2022/12/02 08:51:17;;;;;;;81.80;29.90;;;;;;;-0.52;70.58;101369.31;126898;1278;98002;-76
2022/12/02 08:54:20;;;;;;;79.50;31.80;;;;;;;-0.55;70.63;101369.77;126934;1275;98008;-77
2022/12/02 08:57:23;;;;;;;69.90;27.60;;;;;;;-0.53;70.77;101366.91;126919;1274;98749;-75
2022/12/02 09:00:25;;;;;;;60.30;25.30;;;;;;;-0.51;70.84;101360.88;126823;1278;97989;-76
2022/12/02 09:03:28;;;;;;;58.20;25.80;;;;;;;-0.50;70.77;101361.04;126741;1271;98451;-75
2022/12/02 09:06:31;;;;;;;41.50;20.20;;;;;;;-0.49;70.70;101362.71;126739;1278;98860;-75
2022/12/02 09:09:34;;;;;;;45.50;24.00;;;;;;;-0.45;70.80;101363.10;126628;1278;98031;-75
2022/12/02 09:12:36;;;;;;;46.20;24.00;;;;;;;-0.42;70.63;101358.96;126587;1281;101328;-75
2022/12/02 09:15:39;;;;;;;45.20;24.20;;;;;;;-0.39;70.74;101361.67;126713;1271;98071;-75
2022/12/02 09:18:42;;;;;;;45.00;23.20;;;;;;;-0.38;70.72;101359.20;126544;1278;98014;-76
2022/12/02 09:21:44;;;;;;;29.60;16.70;;;;;;;-0.37;70.69;101362.86;126576;1271;98749;-75
2022/12/02 09:24:47;;;;;;;28.80;15.20;;;;;;;-0.39;70.51;101362.93;126586;1280;98095;-76
2022/12/02 09:27:50;;;;;;;26.60;14.60;;;;;;;-0.43;70.43;101360.41;126636;1279;97997;-74
2022/12/02 09:30:52;;;;;;;30.30;15.60;;;;;;;-0.44;70.43;101365.02;126615;1281;97976;-76
2022/12/02 09:33:55;;;;;;;26.20;14.40;;;;;;;-0.46;70.62;101367.34;126947;1279;98005;-78
2022/12/02 09:36:58;;;;;;;24.70;13.60;;;;;;;-0.47;70.47;101366.17;126821;1280;98776;-76
2022/12/02 09:40:00;;;;;;;28.50;16.60;;;;;;;-0.51;70.42;101367.35;126662;1281;99259;-76
2022/12/02 09:43:04;;;;;;;60.40;28.80;;;;;;;-0.50;70.50;101362.60;126711;1280;111221;-75
2022/12/02 09:46:08;;;;;;;42.60;22.80;;;;;;;-0.47;70.54;101364.57;126732;1274;111259;-74
2022/12/02 09:49:11;;;;;;;41.50;20.10;;;;;;;-0.49;70.40;101367.96;126551;1280;112297;-75
2022/12/02 09:52:17;;;;;;;40.20;21.10;;;;;;;-0.48;70.54;101370.03;126785;1282;98077;-75
2022/12/02 09:55:20;;;;;;;36.30;17.10;;;;;;;-0.42;70.40;101369.13;126882;1288;111368;-75
2022/12/02 09:58:23;;;;;;;47.30;22.90;;;;;;;-0.44;70.34;101366.94;126857;1280;99024;-75
2022/12/02 10:01:26;;;;;;;40.10;19.80;;;;;;;-0.44;70.46;101369.74;126715;1274;99127;-76
2022/12/02 10:04:29;;;;;;;37.00;18.10;;;;;;;-0.42;70.38;101368.25;126678;1280;111304;-76
2022/12/02 10:07:32;;;;;;;33.80;17.20;;;;;;;-0.42;70.35;101365.09;126711;1271;99023;-75
2022/12/02 10:10:38;;;;;;;51.70;25.20;;;;;;;-0.40;70.38;101364.85;126765;1280;99140;-77
2022/12/02 10:13:41;;;;;;;38.50;20.90;;;;;;;-0.38;70.37;101363.75;126782;1278;111191;-75
2022/12/02 10:16:44;;;;;;;36.20;20.00;;;;;;;-0.38;70.35;101361.11;126687;1286;111162;-76
2022/12/02 10:19:49;;;;;;;37.40;21.40;;;;;;;-0.33;70.40;101358.69;126695;1288;109683;-76
2022/12/02 10:23:10;;;;;;;29.50;15.50;;;;;;;-0.27;70.44;101352.84;126616;1295;111242;-76
2022/12/02 10:26:14;;;;;;;31.60;16.30;;;;;;;-0.25;70.14;101349.10;126762;1278;111150;-74
2022/12/02 10:29:25;;;;;;;32.60;17.10;;;;;;;-0.24;70.31;101349.08;126722;1280;111008;-75
2022/12/02 10:32:27;;;;;;;36.80;20.30;;;;;;;-0.21;70.13;101348.27;126536;1287;111190;-75
2022/12/02 10:35:44;;;;;;;34.50;18.70;;;;;;;-0.22;70.14;101352.33;126704;1288;98442;-76
2022/12/02 10:38:46;;;;;;;36.60;19.60;;;;;;;-0.23;70.36;101352.86;126631;1280;111171;-76
2022/12/02 10:41:50;;;;;;;38.30;18.20;;;;;;;-0.20;70.28;101354.33;126743;1287;99073;-75
2022/12/02 10:45:16;;;;;;;38.70;20.40;;;;;;;-0.18;70.04;101356.04;126814;1278;111247;-75
2022/12/02 10:48:19;;;;;;;75.00;33.00;;;;;;;-0.17;70.19;101357.38;126917;1278;111122;-75
2022/12/02 10:51:21;;;;;;;74.40;34.60;;;;;;;-0.16;70.17;101354.36;126949;1279;110936;-75
2022/12/02 10:54:28;;;;;;;65.00;29.20;;;;;;;-0.20;70.12;101351.19;126698;1273;99036;-75
2022/12/02 10:57:33;;;;;;;64.50;28.40;;;;;;;-0.22;70.09;101346.73;126774;1274;111201;-76
2022/12/02 11:00:36;;;;;;;45.50;22.30;;;;;;;-0.25;69.92;101353.98;126720;1277;111246;-75
2022/12/02 11:03:39;;;;;;;39.00;18.40;;;;;;;-0.25;69.98;101351.20;126648;1288;98007;-76
2022/12/02 11:06:43;;;;;;;31.20;17.00;;;;;;;-0.25;69.76;101352.43;126631;1288;111163;-75
2022/12/02 11:09:51;;;;;;;34.40;19.20;;;;;;;-0.29;69.79;101353.11;126734;1288;111293;-75
2022/12/02 11:13:30;;;;;;;41.00;20.90;;;;;;;-0.31;69.91;101354.75;126627;1297;111228;-77
2022/12/02 11:17:01;;;;;;;60.50;29.50;;;;;;;-0.36;69.98;101351.09;126496;1282;111201;-76
2022/12/02 11:20:33;;;;;;;47.00;22.60;;;;;;;-0.39;69.84;101353.12;126654;1279;111287;-76
2022/12/02 11:23:36;;;;;;;41.10;19.70;;;;;;;-0.41;69.87;101354.05;126706;1270;111197;-75
2022/12/02 11:27:05;;;;;;;39.20;20.60;;;;;;;-0.41;69.81;101351.42;126784;1288;98007;-74
2022/12/02 11:30:35;;;;;;;46.50;22.90;;;;;;;-0.42;69.88;101348.48;126652;1288;110984;-76
2022/12/02 11:34:13;;;;;;;44.90;20.30;;;;;;;-0.39;69.94;101346.98;126644;1282;111223;-77
2022/12/02 11:37:39;;;;;;;41.10;22.10;;;;;;;-0.40;69.90;101343.17;126661;1280;111267;-75
2022/12/02 11:40:59;;;;;;;40.50;21.50;;;;;;;-0.36;70.00;101343.56;126733;1280;111415;-75
2022/12/02 11:44:25;;;;;;;43.10;23.40;;;;;;;-0.34;69.88;101337.02;126771;1295;111238;-76
2022/12/02 11:47:32;;;;;;;36.90;19.80;;;;;;;-0.36;69.53;101333.42;126862;1288;111169;-76
2022/12/02 11:50:39;;;;;;;46.30;25.40;;;;;;;-0.42;69.64;101336.60;126784;1280;110352;-78
2022/12/02 11:53:50;;;;;;;49.50;35.60;;;;;;;-0.43;69.85;101339.45;126794;1288;111158;-75
2022/12/02 11:56:53;;;;;;;53.10;25.80;;;;;;;-0.44;69.76;101336.17;126794;1280;110181;-74
2022/12/02 11:59:57;;;;;;;36.70;20.30;;;;;;;-0.43;69.78;101334.70;126828;1286;111195;-75
2022/12/02 12:03:10;;;;;;;34.10;19.10;;;;;;;-0.45;69.62;101332.88;126723;1284;111243;-74
2022/12/02 12:06:15;;;;;;;35.10;18.90;;;;;;;-0.50;69.67;101339.87;126683;1287;110092;-75
2022/12/02 12:09:18;;;;;;;70.50;29.20;;;;;;;-0.56;69.53;101340.62;126663;1288;111295;-74
2022/12/02 12:12:21;;;;;;;67.50;27.40;;;;;;;-0.62;69.73;101335.78;126684;1280;98768;-75
2022/12/02 12:15:49;;;;;;;45.90;22.90;;;;;;;-0.67;69.64;101331.23;126783;1281;99132;-71
2022/12/02 12:18:53;;;;;;;91.30;33.50;;;;;;;-0.73;69.85;101331.98;126763;1278;111207;-72
2022/12/02 12:21:57;;;;;;;86.60;31.30;;;;;;;-0.77;69.82;101325.28;126961;1288;111271;-74
2022/12/02 12:25:29;;;;;;;92.30;33.10;;;;;;;-0.83;69.88;101326.55;126762;1281;111108;-74
2022/12/02 12:28:33;;;;;;;49.20;22.70;;;;;;;-0.87;70.00;101324.23;126763;1293;111150;-75
2022/12/02 12:31:36;;;;;;;57.10;25.10;;;;;;;-0.86;69.99;101322.45;126791;1280;111195;-73
2022/12/02 12:34:39;;;;;;;63.10;27.50;;;;;;;-0.86;70.03;101324.54;126584;1297;99030;-74
2022/12/02 12:37:41;;;;;;;78.80;29.80;;;;;;;-0.82;70.28;101324.77;126662;1278;98752;-74
2022/12/02 12:40:44;;;;;;;172.60;50.40;;;;;;;-0.76;70.12;101325.77;126610;1288;97972;-75
2022/12/02 12:43:46;;;;;;;37.60;18.10;;;;;;;-0.70;70.12;101327.30;126737;1279;98434;-75
2022/12/02 12:46:49;;;;;;;49.20;23.20;;;;;;;-0.60;70.07;101325.55;126797;1278;98064;-74
2022/12/02 12:49:52;;;;;;;48.60;23.30;;;;;;;-0.51;69.88;101324.19;126672;1273;98068;-75
2022/12/02 12:52:55;;;;;;;57.40;26.20;;;;;;;-0.47;69.87;101321.21;126834;1281;98759;-74
2022/12/02 12:55:57;;;;;;;52.90;24.70;;;;;;;-0.47;69.71;101320.52;126955;1279;107483;-74
2022/12/02 12:59:00;;;;;;;70.40;31.50;;;;;;;-0.49;69.70;101322.00;126757;1281;99140;-75
2022/12/02 13:02:03;;;;;;;55.50;26.10;;;;;;;-0.52;69.82;101317.23;126619;1279;98118;-74
2022/12/02 13:05:07;;;;;;;34.70;19.00;;;;;;;-0.50;69.93;101319.94;126640;1281;97983;-74
2022/12/02 13:08:10;;;;;;;45.60;22.30;;;;;;;-0.49;69.72;101318.70;126854;1288;107579;-74
2022/12/02 13:11:12;;;;;;;43.20;21.50;;;;;;;-0.54;69.73;101317.50;126715;1281;99140;-75
2022/12/02 13:14:15;;;;;;;42.50;21.60;;;;;;;-0.64;69.65;101320.27;126614;1280;98118;-75
2022/12/02 13:17:17;;;;;;;37.00;20.00;;;;;;;-0.69;69.83;101324.50;126648;1288;99042;-73
2022/12/02 13:20:20;;;;;;;39.40;20.80;;;;;;;-0.73;69.74;101327.59;126692;1275;98079;-78
2022/12/02 13:23:23;;;;;;;35.00;20.20;;;;;;;-0.76;69.92;101331.19;126602;1278;98009;-77
2022/12/02 13:26:25;;;;;;;31.80;17.80;;;;;;;-0.76;69.79;101337.30;126816;1281;98965;-77
2022/12/02 13:29:28;;;;;;;32.80;17.80;;;;;;;-0.77;69.73;101337.88;126754;1278;98011;-76
2022/12/02 13:32:31;;;;;;;30.10;16.90;;;;;;;-0.81;69.76;101339.73;126625;1271;99144;-76
2022/12/02 13:35:33;;;;;;;36.90;21.00;;;;;;;-0.85;69.71;101337.09;126903;1278;98463;-77
2022/12/02 13:38:36;;;;;;;35.10;18.10;;;;;;;-0.92;69.76;101337.50;126783;1274;97993;-77
2022/12/02 13:41:39;;;;;;;37.20;19.60;;;;;;;-0.95;69.85;101336.91;126692;1287;98438;-75
2022/12/02 13:44:41;;;;;;;36.50;21.30;;;;;;;-0.95;69.76;101338.50;126722;1287;99195;-77
2022/12/02 13:47:44;;;;;;;37.10;18.90;;;;;;;-0.97;69.85;101337.52;126718;1281;98774;-76
2022/12/02 13:50:47;;;;;;;32.90;17.40;;;;;;;-1.02;70.06;101338.71;126789;1281;98190;-76
2022/12/02 13:53:50;;;;;;;28.90;16.70;;;;;;;-1.04;69.87;101340.69;126762;1287;99167;-75
2022/12/02 13:56:52;;;;;;;35.00;18.20;;;;;;;-1.07;70.07;101337.69;126748;1281;98011;-77
2022/12/02 13:59:55;;;;;;;35.40;19.50;;;;;;;-1.10;70.07;101337.79;126744;1288;98781;-76